createdAt,value
2023-04-18T00:02:08.916Z,946.34
2023-04-18T00:04:35.328Z,946.34
2023-04-18T00:07:01.621Z,946.35
2023-04-18T00:09:28.078Z,946.37
2023-04-18T00:11:54.487Z,946.36
2023-04-18T00:14:20.878Z,946.31
2023-04-18T00:16:48.396Z,946.39
2023-04-18T00:19:14.764Z,946.41
2023-04-18T00:21:41.169Z,946.43
2023-04-18T00:24:07.636Z,946.35
2023-04-18T00:26:33.976Z,946.43
2023-04-18T00:29:00.343Z,946.39
2023-04-18T00:31:26.798Z,946.40
2023-04-18T00:33:53.105Z,946.37
2023-04-18T00:36:19.514Z,946.39
2023-04-18T00:38:45.923Z,946.37
2023-04-18T00:41:12.303Z,946.28
2023-04-18T00:43:38.696Z,946.29
2023-04-18T00:46:05.279Z,946.25
2023-04-18T00:48:31.603Z,946.29
2023-04-18T00:50:57.974Z,946.30
2023-04-18T00:53:24.428Z,946.23
2023-04-18T00:55:50.832Z,946.21
2023-04-18T00:58:17.249Z,946.13
2023-04-18T01:00:43.657Z,946.16
2023-04-18T01:03:10.222Z,946.13
2023-04-18T01:05:36.425Z,946.13
2023-04-18T01:08:02.794Z,946.14
2023-04-18T01:10:29.221Z,946.15
2023-04-18T01:12:55.638Z,946.13
2023-04-18T01:15:21.999Z,946.12
2023-04-18T01:17:48.433Z,946.11
2023-04-18T01:20:14.830Z,946.13
2023-04-18T01:22:41.311Z,946.10
2023-04-18T01:25:07.713Z,946.04
2023-04-18T01:27:34.079Z,946.13
2023-04-18T01:30:00.493Z,946.10
2023-04-18T01:32:26.941Z,946.14
2023-04-18T01:34:53.289Z,946.16
2023-04-18T01:37:19.663Z,946.11
2023-04-18T01:39:46.040Z,946.10
2023-04-18T01:42:12.427Z,946.13
2023-04-18T01:44:38.796Z,946.08
2023-04-18T01:47:05.175Z,946.05
2023-04-18T01:49:31.557Z,946.10
2023-04-18T01:51:57.975Z,946.07
2023-04-18T01:54:24.380Z,946.02
2023-04-18T01:56:50.758Z,946.02
2023-04-18T01:59:17.176Z,946.08
2023-04-18T02:01:43.618Z,946.06
2023-04-18T02:04:09.998Z,946.03
2023-04-18T02:06:36.383Z,946.05
2023-04-18T02:09:02.760Z,946.04
2023-04-18T02:11:29.144Z,946.13
2023-04-18T06:21:35.980Z,947.08
2023-04-18T06:24:02.460Z,947.06
2023-04-18T06:26:28.807Z,947.09
2023-04-18T06:28:55.515Z,947.11
2023-04-18T06:31:21.940Z,947.11
2023-04-18T06:33:48.340Z,947.15
2023-04-18T06:36:14.758Z,947.13
2023-04-18T06:38:41.233Z,947.02
2023-04-18T06:41:07.765Z,947.10
2023-04-18T06:43:34.230Z,947.11
2023-04-18T06:46:00.642Z,947.08
2023-04-18T06:48:27.002Z,947.12
2023-04-18T06:50:53.585Z,947.19
2023-04-18T06:53:20.009Z,947.12
2023-04-18T06:55:46.396Z,947.15
2023-04-18T06:58:12.796Z,947.12
2023-04-18T07:00:39.503Z,947.21
2023-04-18T07:03:07.610Z,947.17
2023-04-18T07:05:32.381Z,947.24
2023-04-18T07:07:58.792Z,947.17
2023-04-18T07:10:25.504Z,947.27
2023-04-18T07:12:52.018Z,947.29
2023-04-18T07:15:18.387Z,947.26
2023-04-18T07:17:44.828Z,947.31
2023-04-18T07:20:12.366Z,947.23
2023-04-18T07:22:37.550Z,947.25
2023-04-18T07:25:04.215Z,947.23
2023-04-18T07:27:30.713Z,947.28
2023-04-18T07:29:57.187Z,947.23
2023-04-18T07:32:23.732Z,947.29
2023-04-18T07:34:50.048Z,947.35
2023-04-18T07:37:16.412Z,947.22
2023-04-18T07:39:42.844Z,947.30
2023-04-18T07:42:09.245Z,947.25
2023-04-18T07:44:35.728Z,947.31
2023-04-18T07:47:02.194Z,947.34
2023-04-18T07:49:28.570Z,947.35
2023-04-18T07:51:54.976Z,947.30
2023-04-18T07:54:21.410Z,947.39
2023-04-18T07:56:47.826Z,947.36
2023-04-18T07:59:14.455Z,947.36
2023-04-18T08:01:40.659Z,947.52
2023-04-18T08:04:07.245Z,947.41
2023-04-18T08:06:33.550Z,947.47
2023-04-18T08:08:59.927Z,947.41
2023-04-18T08:11:26.387Z,947.46
2023-04-18T08:13:52.803Z,947.46
2023-04-18T08:16:19.228Z,947.41
2023-04-18T08:18:45.584Z,947.46
2023-04-18T08:21:12.002Z,947.41
2023-04-18T08:23:38.506Z,947.42
2023-04-18T08:26:04.825Z,947.46
2023-04-18T08:28:31.222Z,947.37
2023-04-18T08:30:57.590Z,947.37
2023-04-18T08:33:26.147Z,947.32
2023-04-18T08:35:52.582Z,947.35
2023-04-18T08:38:23.304Z,947.50
2023-04-18T08:40:49.714Z,947.45
2023-04-18T08:43:16.073Z,947.47
2023-04-18T08:45:42.644Z,947.44
2023-04-18T08:48:08.953Z,947.36
2023-04-18T08:50:35.292Z,947.33
2023-04-18T08:53:01.663Z,947.29
2023-04-18T08:55:28.377Z,947.32
2023-04-18T08:57:55.155Z,947.37
2023-04-18T09:00:21.800Z,947.35
2023-04-18T09:02:48.246Z,947.24
2023-04-18T09:05:14.597Z,947.41
2023-04-18T09:07:40.931Z,947.30
2023-04-18T09:10:07.311Z,947.27
2023-04-18T09:12:33.614Z,947.25
2023-04-18T09:15:00.019Z,947.29
2023-04-18T09:17:26.348Z,947.29
2023-04-18T09:19:52.731Z,947.30
2023-04-18T09:22:19.155Z,947.34
2023-04-18T09:24:45.514Z,947.35
2023-04-18T09:27:11.899Z,947.35
2023-04-18T09:29:38.267Z,947.37
2023-04-18T09:32:04.681Z,947.40
2023-04-18T09:34:32.181Z,947.37
2023-04-18T09:36:58.720Z,947.41
2023-04-18T09:39:25.091Z,947.42
2023-04-18T09:41:54.147Z,947.38
2023-04-18T09:44:20.704Z,947.39
2023-04-18T09:46:47.584Z,947.35
2023-04-18T09:49:13.529Z,947.29
2023-04-18T09:51:40.121Z,947.34
2023-04-18T09:54:06.473Z,947.31
2023-04-18T09:56:32.844Z,947.34
2023-04-18T09:58:59.251Z,947.27
2023-04-18T10:01:25.862Z,947.28
2023-04-18T10:03:52.269Z,947.30
2023-04-18T10:06:18.644Z,947.26
2023-04-18T10:08:45.080Z,947.23
2023-04-18T10:11:11.453Z,947.27
2023-04-18T10:13:37.842Z,947.30
2023-04-18T10:16:04.288Z,947.23
2023-04-18T10:18:30.672Z,947.28
2023-04-18T10:20:57.003Z,947.21
2023-04-18T10:23:23.434Z,947.19
2023-04-18T10:25:49.888Z,947.16
2023-04-18T10:28:16.289Z,947.15
2023-04-18T10:30:42.649Z,947.11
2023-04-18T10:33:18.353Z,947.09
2023-04-18T10:35:35.556Z,947.13
2023-04-18T10:38:01.977Z,947.08
2023-04-18T10:40:28.366Z,947.07
2023-04-18T10:42:54.701Z,947.11
2023-04-18T10:45:21.211Z,947.08
2023-04-18T10:47:47.688Z,947.05
2023-04-18T10:50:14.093Z,947.11
2023-04-18T10:52:40.539Z,947.11
2023-04-18T10:55:06.938Z,947.07
2023-04-18T10:57:33.377Z,947.02
2023-04-18T10:59:59.720Z,947.02
2023-04-18T11:02:26.410Z,947.01
2023-04-18T11:04:52.596Z,946.98
2023-04-18T11:07:20.105Z,946.97
2023-04-18T11:09:46.643Z,946.96
2023-04-18T11:12:12.998Z,946.90
2023-04-18T11:14:39.480Z,946.91
2023-04-18T11:17:05.861Z,946.85
2023-04-18T11:19:32.225Z,946.90
2023-04-18T11:21:58.604Z,946.84
2023-04-18T11:24:24.973Z,946.78
2023-04-18T11:26:51.620Z,946.75
2023-04-18T11:29:17.984Z,946.80
2023-04-18T11:31:44.417Z,946.73
2023-04-18T11:34:11.176Z,946.76
2023-04-18T11:36:37.505Z,946.73
2023-04-18T11:39:03.917Z,946.71
2023-04-18T11:41:30.326Z,946.80
2023-04-18T11:43:56.748Z,946.86
2023-04-18T11:46:23.232Z,946.82
2023-04-18T11:48:49.537Z,946.82
2023-04-18T11:51:15.898Z,946.83
2023-04-18T11:53:42.349Z,946.82
2023-04-18T11:56:08.980Z,946.87
2023-04-18T11:58:35.424Z,946.85
2023-04-18T12:01:01.872Z,946.88
2023-04-18T12:03:28.398Z,946.93
2023-04-18T12:05:54.769Z,946.93
2023-04-18T12:08:21.114Z,946.88
2023-04-18T12:10:47.672Z,946.90
2023-04-18T12:13:14.020Z,947.00
2023-04-18T12:15:40.498Z,946.92
2023-04-18T12:18:07.190Z,946.96
2023-04-18T12:20:34.622Z,946.88
2023-04-18T12:23:01.022Z,946.94
2023-04-18T12:25:27.872Z,946.91
2023-04-18T12:27:53.936Z,946.85
2023-04-18T12:30:20.292Z,946.88
2023-04-18T12:32:46.794Z,946.84
2023-04-18T12:35:13.119Z,946.81
2023-04-18T12:37:39.683Z,946.84
2023-04-18T12:40:06.095Z,946.90
2023-04-18T12:42:32.488Z,946.84
2023-04-18T12:44:58.898Z,946.92
2023-04-18T12:47:25.426Z,946.97
2023-04-18T12:49:51.816Z,946.96
2023-04-18T12:52:18.196Z,946.96
2023-04-18T12:54:44.865Z,946.96
2023-04-18T12:57:12.430Z,946.90
2023-04-18T12:59:38.830Z,946.97
2023-04-18T13:02:05.403Z,946.99
2023-04-18T13:04:34.221Z,946.98
2023-04-18T13:07:00.254Z,947.08
2023-04-18T13:09:26.707Z,947.03
2023-04-18T13:11:53.788Z,947.04
2023-04-18T13:14:20.208Z,946.97
2023-04-18T13:16:46.696Z,946.92
2023-04-18T13:19:13.163Z,947.09
2023-04-18T13:21:39.476Z,947.06
2023-04-18T13:24:05.910Z,947.06
2023-04-18T13:26:32.345Z,947.03
2023-04-18T13:28:58.722Z,947.03
2023-04-18T13:31:25.388Z,946.97
2023-04-18T13:33:51.731Z,946.95
2023-04-18T13:36:18.160Z,946.93
2023-04-18T13:38:44.617Z,946.93
2023-04-18T13:41:13.711Z,946.93
2023-04-18T13:43:39.547Z,946.99
2023-04-18T13:46:05.979Z,946.97
2023-04-18T13:48:32.468Z,946.96
2023-04-18T13:50:58.840Z,947.01
2023-04-18T13:53:25.213Z,946.97
2023-04-18T13:55:51.647Z,947.03
2023-04-18T13:58:18.097Z,946.96
2023-04-18T14:00:44.560Z,946.99
2023-04-18T14:03:11.033Z,947.05
2023-04-18T14:05:37.262Z,947.08
2023-04-18T14:08:03.704Z,947.08
2023-04-18T14:10:31.167Z,947.08
2023-04-18T14:12:57.611Z,947.11
2023-04-18T14:15:23.977Z,947.09
2023-04-18T14:17:50.611Z,946.99
2023-04-18T14:20:17.043Z,947.10
2023-04-18T14:22:43.484Z,947.02
2023-04-18T14:25:09.851Z,947.12
2023-04-18T14:27:36.283Z,947.14
2023-04-18T14:30:02.698Z,947.15
2023-04-18T14:32:29.131Z,947.20
2023-04-18T14:34:55.545Z,947.23
2023-04-18T14:37:21.915Z,947.15
2023-04-18T14:39:48.360Z,947.14
2023-04-18T14:42:14.727Z,947.16
2023-04-18T14:44:41.119Z,947.19
2023-04-18T14:47:07.650Z,947.21
2023-04-18T14:49:34.016Z,947.22
2023-04-18T14:52:00.427Z,947.21
2023-04-18T14:54:26.853Z,947.20
2023-04-18T14:56:53.287Z,947.27
2023-04-18T14:59:19.978Z,947.27
2023-04-18T15:01:46.171Z,947.26
2023-04-18T15:04:13.094Z,947.29
2023-04-18T15:06:38.931Z,947.24
2023-04-18T15:09:05.306Z,947.37
2023-04-18T15:11:31.716Z,947.40
2023-04-18T15:13:58.151Z,947.40
2023-04-18T15:16:24.554Z,947.48
2023-04-18T15:18:50.903Z,947.41
2023-04-18T15:21:17.310Z,947.44
2023-04-18T15:23:43.723Z,947.47
2023-04-18T15:26:10.119Z,947.52
2023-04-18T15:28:36.780Z,947.56
2023-04-18T15:31:03.162Z,947.65
2023-04-18T15:33:29.557Z,947.63
2023-04-18T15:35:55.990Z,947.62
2023-04-18T15:38:22.383Z,947.65
2023-04-18T15:40:49.046Z,947.64
2023-04-18T15:43:15.488Z,947.65
2023-04-18T15:45:42.044Z,947.69
2023-04-18T15:48:08.448Z,947.70
2023-04-18T15:50:34.908Z,947.64
2023-04-18T15:53:01.373Z,947.69
2023-04-18T15:55:27.751Z,947.70
2023-04-18T15:57:54.178Z,947.74
2023-04-18T16:00:22.758Z,947.65
2023-04-18T16:02:49.466Z,947.66
2023-04-18T16:05:15.784Z,947.72
2023-04-18T16:07:42.312Z,947.71
2023-04-18T16:10:08.609Z,947.75
2023-04-18T16:12:34.985Z,947.76
2023-04-18T16:15:01.503Z,947.80
2023-04-18T16:17:27.863Z,947.83
2023-04-18T16:19:55.302Z,947.80
2023-04-18T16:22:21.692Z,947.91
2023-04-18T16:24:48.105Z,947.91
2023-04-18T16:27:14.525Z,947.91
2023-04-18T16:29:40.940Z,947.87
2023-04-18T16:32:07.366Z,947.86
2023-04-18T16:34:33.732Z,947.86
2023-04-18T16:37:00.251Z,947.84
2023-04-18T16:39:26.679Z,947.82
2023-04-18T16:41:53.115Z,947.85
2023-04-18T16:44:19.646Z,947.87
2023-04-18T16:46:46.112Z,947.85
2023-04-18T16:49:12.497Z,947.93
2023-04-18T16:51:39.018Z,947.91
2023-04-18T16:54:05.409Z,947.92
2023-04-18T16:56:31.785Z,947.97
2023-04-18T16:58:58.213Z,948.02
2023-04-18T17:01:25.202Z,947.97
2023-04-18T17:03:51.672Z,947.97
2023-04-18T17:06:17.955Z,947.99
2023-04-18T17:08:46.820Z,947.94
2023-04-18T17:11:13.272Z,948.03
2023-04-18T17:13:39.663Z,948.07
2023-04-18T17:16:06.143Z,948.10
2023-04-18T17:18:32.489Z,948.24
2023-04-18T17:20:58.909Z,948.27
2023-04-18T17:23:25.288Z,948.25
2023-04-18T17:25:55.523Z,948.28
2023-04-18T17:28:22.319Z,948.30
2023-04-18T17:30:48.987Z,948.28
2023-04-18T17:33:15.367Z,948.23
2023-04-18T17:35:41.782Z,948.22
2023-04-18T17:38:08.792Z,948.22
2023-04-18T17:40:35.176Z,948.20
2023-04-18T17:43:01.625Z,948.18
2023-04-18T17:45:28.396Z,948.24
2023-04-18T17:48:06.751Z,948.24
2023-04-18T17:50:33.440Z,948.27
2023-04-18T17:52:59.825Z,948.38
2023-04-18T17:55:26.272Z,948.38
2023-04-18T17:57:52.684Z,948.40
2023-04-18T18:00:19.065Z,948.46
2023-04-18T18:02:45.617Z,948.50
2023-04-18T18:05:11.873Z,948.51
2023-04-18T18:07:38.296Z,948.55
2023-04-18T18:10:04.664Z,948.54
2023-04-18T18:12:31.135Z,948.59
2023-04-18T18:14:57.482Z,948.55
2023-04-18T18:17:23.900Z,948.55
2023-04-18T18:19:50.389Z,948.62
2023-04-18T18:22:16.797Z,948.59
2023-04-18T18:24:43.173Z,948.68
2023-04-18T18:27:09.573Z,948.70
2023-04-18T18:29:35.964Z,948.76
2023-04-18T18:32:02.489Z,948.82
2023-04-18T18:34:28.890Z,948.72
2023-04-18T18:36:55.348Z,948.76
2023-04-18T18:39:21.711Z,948.79
2023-04-18T18:41:48.160Z,948.78
2023-04-18T18:44:14.575Z,948.81
2023-04-18T18:46:42.983Z,948.80
2023-04-18T18:49:07.389Z,948.83
2023-04-18T18:51:33.835Z,948.82
2023-04-18T18:54:00.244Z,948.84
2023-04-18T18:56:26.632Z,948.79
2023-04-18T18:58:53.008Z,948.82
2023-04-18T19:01:19.490Z,948.85
2023-04-18T19:03:45.929Z,948.87
2023-04-18T19:06:12.224Z,948.84
2023-04-18T19:08:38.665Z,948.84
2023-04-18T19:11:05.040Z,948.81
2023-04-18T19:13:31.436Z,948.83
2023-04-18T19:15:57.879Z,948.79
2023-04-18T19:18:24.329Z,948.76
2023-04-18T19:20:50.708Z,948.80
2023-04-18T19:23:17.113Z,948.73
2023-04-18T19:25:43.550Z,948.79
2023-04-18T19:28:10.079Z,948.81
2023-04-18T19:30:36.470Z,948.82
2023-04-18T19:33:02.982Z,948.78
2023-04-18T19:35:29.338Z,948.79
2023-04-18T19:37:55.700Z,948.80
2023-04-18T19:40:22.229Z,948.82
2023-04-18T19:42:48.600Z,948.76
2023-04-18T19:45:15.029Z,948.77
2023-04-18T19:47:41.417Z,948.85
2023-04-18T19:50:07.786Z,948.78
2023-04-18T19:52:34.345Z,948.81
2023-04-18T19:55:00.775Z,948.89
2023-04-18T19:57:27.366Z,948.81
2023-04-18T19:59:53.854Z,948.81
2023-04-18T20:02:20.465Z,948.76
2023-04-18T20:04:46.811Z,948.77
2023-04-18T20:07:13.175Z,948.75
2023-04-18T20:09:39.563Z,948.73
